sensor_id;sensor_type;location;lat;lon;timestamp;P1;durP1;ratioP1;P2;durP2;ratioP2
25249;SDS011;13201;51.148;13.738;2023-07-13T00:01:47;7.38;;;1.70;;
25249;SDS011;13201;51.148;13.738;2023-07-13T00:04:15;5.50;;;1.70;;
25249;SDS011;13201;51.148;13.738;2023-07-13T00:06:43;1.60;;;1.50;;
25249;SDS011;13201;51.148;13.738;2023-07-13T00:09:15;3.47;;;1.60;;
25249;SDS011;13201;51.148;13.738;2023-07-13T00:11:42;2.88;;;1.60;;
25249;SDS011;13201;51.148;13.738;2023-07-13T00:14:09;3.88;;;1.70;;
25249;SDS011;13201;51.148;13.738;2023-07-13T00:21:28;8.47;;;1.70;;
25249;SDS011;13201;51.148;13.738;2023-07-13T00:23:53;3.08;;;1.90;;
25249;SDS011;13201;51.148;13.738;2023-07-13T00:26:19;3.13;;;1.60;;
25249;SDS011;13201;51.148;13.738;2023-07-13T00:28:45;5.13;;;1.40;;
25249;SDS011;13201;51.148;13.738;2023-07-13T00:31:11;2.15;;;1.52;;
25249;SDS011;13201;51.148;13.738;2023-07-13T00:33:39;3.22;;;1.60;;
25249;SDS011;13201;51.148;13.738;2023-07-13T00:36:05;2.57;;;1.50;;
25249;SDS011;13201;51.148;13.738;2023-07-13T00:38:31;6.40;;;1.80;;
25249;SDS011;13201;51.148;13.738;2023-07-13T00:40:57;9.75;;;1.83;;
25249;SDS011;13201;51.148;13.738;2023-07-13T00:43:24;2.23;;;1.50;;
25249;SDS011;13201;51.148;13.738;2023-07-13T00:48:21;2.53;;;1.70;;
25249;SDS011;13201;51.148;13.738;2023-07-13T00:50:51;5.90;;;1.85;;
25249;SDS011;13201;51.148;13.738;2023-07-13T00:53:20;2.63;;;1.60;;
25249;SDS011;13201;51.148;13.738;2023-07-13T00:55:47;2.35;;;1.60;;
25249;SDS011;13201;51.148;13.738;2023-07-13T00:58:15;2.63;;;1.60;;
25249;SDS011;13201;51.148;13.738;2023-07-13T01:00:41;4.43;;;1.70;;
25249;SDS011;13201;51.148;13.738;2023-07-13T01:03:07;2.23;;;1.67;;
25249;SDS011;13201;51.148;13.738;2023-07-13T01:29:42;4.03;;;1.98;;
25249;SDS011;13201;51.148;13.738;2023-07-13T01:32:09;2.78;;;1.90;;
25249;SDS011;13201;51.148;13.738;2023-07-13T01:34:37;2.53;;;1.95;;
25249;SDS011;13201;51.148;13.738;2023-07-13T01:37:06;3.35;;;1.83;;
25249;SDS011;13201;51.148;13.738;2023-07-13T01:39:32;3.50;;;2.15;;
25249;SDS011;13201;51.148;13.738;2023-07-13T01:41:58;1.92;;;1.73;;
25249;SDS011;13201;51.148;13.738;2023-07-13T01:44:24;2.42;;;2.00;;
25249;SDS011;13201;51.148;13.738;2023-07-13T01:46:49;3.30;;;2.00;;
25249;SDS011;13201;51.148;13.738;2023-07-13T01:49:15;3.40;;;2.50;;
25249;SDS011;13201;51.148;13.738;2023-07-13T01:51:41;1.77;;;1.55;;
25249;SDS011;13201;51.148;13.738;2023-07-13T01:54:07;6.53;;;2.20;;
25249;SDS011;13201;51.148;13.738;2023-07-13T01:56:32;2.08;;;1.73;;
25249;SDS011;13201;51.148;13.738;2023-07-13T01:58:58;2.60;;;1.80;;
25249;SDS011;13201;51.148;13.738;2023-07-13T02:01:24;2.47;;;1.80;;
25249;SDS011;13201;51.148;13.738;2023-07-13T02:03:49;3.97;;;1.90;;
25249;SDS011;13201;51.148;13.738;2023-07-13T02:06:15;3.55;;;2.00;;
25249;SDS011;13201;51.148;13.738;2023-07-13T02:08:41;4.85;;;2.22;;
25249;SDS011;13201;51.148;13.738;2023-07-13T02:11:07;3.10;;;1.75;;
25249;SDS011;13201;51.148;13.738;2023-07-13T02:13:33;2.83;;;1.90;;
25249;SDS011;13201;51.148;13.738;2023-07-13T02:15:59;3.55;;;1.75;;
25249;SDS011;13201;51.148;13.738;2023-07-13T02:18:25;2.78;;;1.90;;
25249;SDS011;13201;51.148;13.738;2023-07-13T02:20:51;3.00;;;2.00;;
25249;SDS011;13201;51.148;13.738;2023-07-13T02:23:17;2.20;;;1.85;;
25249;SDS011;13201;51.148;13.738;2023-07-13T02:25:43;4.53;;;2.00;;
25249;SDS011;13201;51.148;13.738;2023-07-13T02:28:09;4.57;;;2.10;;
25249;SDS011;13201;51.148;13.738;2023-07-13T02:30:35;5.15;;;2.50;;
25249;SDS011;13201;51.148;13.738;2023-07-13T02:33:01;2.83;;;2.40;;
25249;SDS011;13201;51.148;13.738;2023-07-13T02:35:27;5.20;;;2.13;;
25249;SDS011;13201;51.148;13.738;2023-07-13T02:37:53;2.33;;;1.90;;
25249;SDS011;13201;51.148;13.738;2023-07-13T02:40:19;3.40;;;2.33;;
25249;SDS011;13201;51.148;13.738;2023-07-13T02:42:45;2.10;;;1.80;;
25249;SDS011;13201;51.148;13.738;2023-07-13T02:45:10;2.97;;;2.03;;
25249;SDS011;13201;51.148;13.738;2023-07-13T02:47:39;2.92;;;1.90;;
25249;SDS011;13201;51.148;13.738;2023-07-13T02:50:06;2.47;;;2.17;;
25249;SDS011;13201;51.148;13.738;2023-07-13T02:52:32;2.23;;;2.00;;
25249;SDS011;13201;51.148;13.738;2023-07-13T02:54:58;2.50;;;1.95;;
25249;SDS011;13201;51.148;13.738;2023-07-13T02:57:23;2.83;;;2.10;;
25249;SDS011;13201;51.148;13.738;2023-07-13T02:59:49;2.20;;;2.00;;
25249;SDS011;13201;51.148;13.738;2023-07-13T03:02:15;2.55;;;1.90;;
25249;SDS011;13201;51.148;13.738;2023-07-13T03:04:41;2.28;;;2.08;;
25249;SDS011;13201;51.148;13.738;2023-07-13T03:07:06;3.55;;;2.00;;
25249;SDS011;13201;51.148;13.738;2023-07-13T03:09:33;3.30;;;2.10;;
25249;SDS011;13201;51.148;13.738;2023-07-13T03:11:59;2.28;;;1.85;;
25249;SDS011;13201;51.148;13.738;2023-07-13T03:14:25;2.70;;;2.10;;
25249;SDS011;13201;51.148;13.738;2023-07-13T03:16:51;3.60;;;2.05;;
25249;SDS011;13201;51.148;13.738;2023-07-13T03:19:17;5.07;;;2.33;;
25249;SDS011;13201;51.148;13.738;2023-07-13T03:21:43;3.20;;;2.03;;
25249;SDS011;13201;51.148;13.738;2023-07-13T03:24:09;2.80;;;1.90;;
25249;SDS011;13201;51.148;13.738;2023-07-13T03:26:35;2.40;;;2.20;;
25249;SDS011;13201;51.148;13.738;2023-07-13T03:29:00;4.13;;;2.33;;
25249;SDS011;13201;51.148;13.738;2023-07-13T03:31:27;2.40;;;1.88;;
25249;SDS011;13201;51.148;13.738;2023-07-13T03:33:55;3.10;;;1.90;;
25249;SDS011;13201;51.148;13.738;2023-07-13T03:36:23;2.75;;;2.20;;
25249;SDS011;13201;51.148;13.738;2023-07-13T03:38:55;2.75;;;2.00;;
25249;SDS011;13201;51.148;13.738;2023-07-13T03:41:22;3.00;;;2.22;;
25249;SDS011;13201;51.148;13.738;2023-07-13T03:43:49;2.83;;;2.10;;
25249;SDS011;13201;51.148;13.738;2023-07-13T03:46:15;2.83;;;2.15;;
25249;SDS011;13201;51.148;13.738;2023-07-13T03:48:43;4.88;;;2.25;;
25249;SDS011;13201;51.148;13.738;2023-07-13T03:51:10;5.38;;;2.28;;
25249;SDS011;13201;51.148;13.738;2023-07-13T03:53:39;2.83;;;1.98;;
25249;SDS011;13201;51.148;13.738;2023-07-13T03:56:06;3.03;;;2.08;;
25249;SDS011;13201;51.148;13.738;2023-07-13T03:58:34;3.40;;;2.08;;
25249;SDS011;13201;51.148;13.738;2023-07-13T04:01:03;4.57;;;2.30;;
25249;SDS011;13201;51.148;13.738;2023-07-13T04:03:30;3.65;;;2.50;;
25249;SDS011;13201;51.148;13.738;2023-07-13T04:05:58;3.67;;;2.20;;
25249;SDS011;13201;51.148;13.738;2023-07-13T04:08:28;3.38;;;2.25;;
25249;SDS011;13201;51.148;13.738;2023-07-13T04:10:56;3.20;;;2.22;;
25249;SDS011;13201;51.148;13.738;2023-07-13T04:15:48;3.57;;;2.40;;
25249;SDS011;13201;51.148;13.738;2023-07-13T04:18:14;2.47;;;2.27;;
25249;SDS011;13201;51.148;13.738;2023-07-13T04:20:40;2.90;;;2.20;;
25249;SDS011;13201;51.148;13.738;2023-07-13T04:23:06;2.72;;;1.98;;
25249;SDS011;13201;51.148;13.738;2023-07-13T04:25:32;7.13;;;2.47;;
25249;SDS011;13201;51.148;13.738;2023-07-13T04:27:57;2.78;;;2.20;;
25249;SDS011;13201;51.148;13.738;2023-07-13T04:30:23;2.83;;;2.25;;
25249;SDS011;13201;51.148;13.738;2023-07-13T04:32:52;3.88;;;2.20;;
25249;SDS011;13201;51.148;13.738;2023-07-13T04:35:21;3.03;;;1.98;;
25249;SDS011;13201;51.148;13.738;2023-07-13T04:37:50;7.00;;;2.22;;
25249;SDS011;13201;51.148;13.738;2023-07-13T04:40:17;2.88;;;2.30;;
25249;SDS011;13201;51.148;13.738;2023-07-13T04:45:09;3.83;;;2.17;;
25249;SDS011;13201;51.148;13.738;2023-07-13T04:47:35;3.45;;;2.30;;
25249;SDS011;13201;51.148;13.738;2023-07-13T04:50:01;5.78;;;2.00;;
25249;SDS011;13201;51.148;13.738;2023-07-13T04:52:27;3.78;;;2.40;;
25249;SDS011;13201;51.148;13.738;2023-07-13T04:54:53;3.92;;;2.20;;
25249;SDS011;13201;51.148;13.738;2023-07-13T04:57:18;5.15;;;2.13;;
25249;SDS011;13201;51.148;13.738;2023-07-13T04:59:44;4.75;;;2.88;;
25249;SDS011;13201;51.148;13.738;2023-07-13T05:02:10;3.08;;;2.35;;
25249;SDS011;13201;51.148;13.738;2023-07-13T05:04:36;5.15;;;2.00;;
25249;SDS011;13201;51.148;13.738;2023-07-13T05:07:01;4.57;;;2.38;;
25249;SDS011;13201;51.148;13.738;2023-07-13T05:09:27;3.42;;;2.30;;
25249;SDS011;13201;51.148;13.738;2023-07-13T05:11:53;2.10;;;1.85;;
25249;SDS011;13201;51.148;13.738;2023-07-13T05:14:18;4.32;;;1.75;;
25249;SDS011;13201;51.148;13.738;2023-07-13T05:16:44;2.70;;;1.75;;
25249;SDS011;13201;51.148;13.738;2023-07-13T05:19:10;3.75;;;1.75;;
25249;SDS011;13201;51.148;13.738;2023-07-13T05:21:37;3.92;;;2.20;;
25249;SDS011;13201;51.148;13.738;2023-07-13T05:24:02;2.53;;;2.05;;
25249;SDS011;13201;51.148;13.738;2023-07-13T05:26:28;3.08;;;2.30;;
25249;SDS011;13201;51.148;13.738;2023-07-13T05:28:54;2.70;;;2.10;;
25249;SDS011;13201;51.148;13.738;2023-07-13T05:31:19;8.60;;;2.20;;
25249;SDS011;13201;51.148;13.738;2023-07-13T05:33:45;4.85;;;2.28;;
25249;SDS011;13201;51.148;13.738;2023-07-13T05:36:11;3.83;;;1.88;;
25249;SDS011;13201;51.148;13.738;2023-07-13T05:38:37;3.05;;;1.75;;
25249;SDS011;13201;51.148;13.738;2023-07-13T05:41:02;4.25;;;1.80;;
25249;SDS011;13201;51.148;13.738;2023-07-13T05:43:28;3.50;;;1.92;;
25249;SDS011;13201;51.148;13.738;2023-07-13T05:45:54;3.33;;;2.03;;
25249;SDS011;13201;51.148;13.738;2023-07-13T05:48:21;6.30;;;2.10;;
25249;SDS011;13201;51.148;13.738;2023-07-13T05:50:47;4.60;;;2.42;;
25249;SDS011;13201;51.148;13.738;2023-07-13T05:53:13;5.18;;;2.30;;
25249;SDS011;13201;51.148;13.738;2023-07-13T05:55:45;4.18;;;1.92;;
25249;SDS011;13201;51.148;13.738;2023-07-13T05:58:13;3.65;;;2.03;;
25249;SDS011;13201;51.148;13.738;2023-07-13T06:00:39;3.80;;;1.90;;
25249;SDS011;13201;51.148;13.738;2023-07-13T06:03:05;7.77;;;2.40;;
25249;SDS011;13201;51.148;13.738;2023-07-13T06:05:32;6.22;;;2.10;;
25249;SDS011;13201;51.148;13.738;2023-07-13T06:10:24;3.57;;;2.17;;
25249;SDS011;13201;51.148;13.738;2023-07-13T06:12:50;3.78;;;2.05;;
25249;SDS011;13201;51.148;13.738;2023-07-13T06:15:16;2.78;;;2.15;;
25249;SDS011;13201;51.148;13.738;2023-07-13T06:17:42;3.37;;;2.17;;
25249;SDS011;13201;51.148;13.738;2023-07-13T06:20:07;4.30;;;2.28;;
25249;SDS011;13201;51.148;13.738;2023-07-13T06:22:33;3.65;;;2.13;;
25249;SDS011;13201;51.148;13.738;2023-07-13T06:24:59;2.40;;;2.20;;
25249;SDS011;13201;51.148;13.738;2023-07-13T06:27:24;6.68;;;2.10;;
25249;SDS011;13201;51.148;13.738;2023-07-13T06:29:50;4.57;;;2.10;;
25249;SDS011;13201;51.148;13.738;2023-07-13T06:32:16;4.68;;;2.35;;
25249;SDS011;13201;51.148;13.738;2023-07-13T06:34:42;5.63;;;1.98;;
25249;SDS011;13201;51.148;13.738;2023-07-13T06:37:08;5.60;;;2.60;;
25249;SDS011;13201;51.148;13.738;2023-07-13T06:42:00;2.63;;;2.00;;
25249;SDS011;13201;51.148;13.738;2023-07-13T06:44:25;9.10;;;2.42;;
25249;SDS011;13201;51.148;13.738;2023-07-13T06:46:51;4.22;;;2.40;;
25249;SDS011;13201;51.148;13.738;2023-07-13T06:49:17;4.82;;;1.83;;
25249;SDS011;13201;51.148;13.738;2023-07-13T06:51:42;4.47;;;2.58;;
25249;SDS011;13201;51.148;13.738;2023-07-13T06:54:08;4.28;;;2.30;;
25249;SDS011;13201;51.148;13.738;2023-07-13T06:56:34;4.80;;;2.10;;
25249;SDS011;13201;51.148;13.738;2023-07-13T06:58:59;3.08;;;2.08;;
25249;SDS011;13201;51.148;13.738;2023-07-13T07:01:25;4.78;;;2.00;;
25249;SDS011;13201;51.148;13.738;2023-07-13T07:03:51;2.88;;;2.13;;
25249;SDS011;13201;51.148;13.738;2023-07-13T07:06:17;3.00;;;2.00;;
25249;SDS011;13201;51.148;13.738;2023-07-13T07:08:45;4.07;;;2.42;;
25249;SDS011;13201;51.148;13.738;2023-07-13T07:11:12;5.97;;;1.90;;
25249;SDS011;13201;51.148;13.738;2023-07-13T07:13:40;4.38;;;2.10;;
25249;SDS011;13201;51.148;13.738;2023-07-13T07:16:05;5.40;;;2.45;;
25249;SDS011;13201;51.148;13.738;2023-07-13T07:18:32;5.30;;;2.33;;
25249;SDS011;13201;51.148;13.738;2023-07-13T07:20:57;3.85;;;2.20;;
25249;SDS011;13201;51.148;13.738;2023-07-13T07:23:23;4.65;;;2.45;;
25249;SDS011;13201;51.148;13.738;2023-07-13T07:25:49;5.72;;;2.33;;
25249;SDS011;13201;51.148;13.738;2023-07-13T07:28:15;12.48;;;2.80;;
25249;SDS011;13201;51.148;13.738;2023-07-13T07:30:44;2.78;;;1.88;;
25249;SDS011;13201;51.148;13.738;2023-07-13T07:33:10;4.28;;;2.15;;
25249;SDS011;13201;51.148;13.738;2023-07-13T07:35:36;4.10;;;2.03;;
25249;SDS011;13201;51.148;13.738;2023-07-13T07:38:02;4.20;;;2.00;;
25249;SDS011;13201;51.148;13.738;2023-07-13T07:40:28;5.20;;;2.50;;
25249;SDS011;13201;51.148;13.738;2023-07-13T07:42:54;2.90;;;2.20;;
25249;SDS011;13201;51.148;13.738;2023-07-13T07:45:20;4.03;;;2.00;;
25249;SDS011;13201;51.148;13.738;2023-07-13T07:47:46;4.75;;;2.20;;
25249;SDS011;13201;51.148;13.738;2023-07-13T07:50:12;4.07;;;1.90;;
25249;SDS011;13201;51.148;13.738;2023-07-13T07:52:38;3.17;;;1.87;;
25249;SDS011;13201;51.148;13.738;2023-07-13T07:55:04;4.80;;;1.60;;
25249;SDS011;13201;51.148;13.738;2023-07-13T07:57:31;3.28;;;1.77;;
25249;SDS011;13201;51.148;13.738;2023-07-13T07:59:57;4.20;;;2.07;;
25249;SDS011;13201;51.148;13.738;2023-07-13T08:02:22;7.38;;;1.90;;
25249;SDS011;13201;51.148;13.738;2023-07-13T08:04:49;3.70;;;1.65;;
25249;SDS011;13201;51.148;13.738;2023-07-13T08:07:15;6.57;;;1.92;;
25249;SDS011;13201;51.148;13.738;2023-07-13T08:09:40;4.75;;;2.15;;
25249;SDS011;13201;51.148;13.738;2023-07-13T08:12:06;3.10;;;1.67;;
25249;SDS011;13201;51.148;13.738;2023-07-13T08:14:32;2.70;;;1.60;;
25249;SDS011;13201;51.148;13.738;2023-07-13T08:16:58;3.10;;;1.60;;
25249;SDS011;13201;51.148;13.738;2023-07-13T08:19:23;5.75;;;1.88;;
25249;SDS011;13201;51.148;13.738;2023-07-13T08:21:49;3.35;;;1.58;;
25249;SDS011;13201;51.148;13.738;2023-07-13T08:24:15;4.00;;;1.90;;
25249;SDS011;13201;51.148;13.738;2023-07-13T08:26:40;5.75;;;1.75;;
25249;SDS011;13201;51.148;13.738;2023-07-13T08:29:06;4.20;;;2.03;;
25249;SDS011;13201;51.148;13.738;2023-07-13T08:31:32;4.65;;;1.60;;
25249;SDS011;13201;51.148;13.738;2023-07-13T08:33:57;4.60;;;1.58;;
25249;SDS011;13201;51.148;13.738;2023-07-13T08:36:23;2.57;;;1.67;;
25249;SDS011;13201;51.148;13.738;2023-07-13T08:41:16;8.67;;;1.77;;
25249;SDS011;13201;51.148;13.738;2023-07-13T08:43:45;6.03;;;1.70;;
25249;SDS011;13201;51.148;13.738;2023-07-13T08:51:17;3.40;;;1.38;;
25249;SDS011;13201;51.148;13.738;2023-07-13T08:53:46;3.65;;;1.35;;
25249;SDS011;13201;51.148;13.738;2023-07-13T08:56:18;5.00;;;1.50;;
25249;SDS011;13201;51.148;13.738;2023-07-13T08:58:47;3.30;;;1.65;;
25249;SDS011;13201;51.148;13.738;2023-07-13T09:04:26;3.65;;;1.52;;
25249;SDS011;13201;51.148;13.738;2023-07-13T09:14:42;4.38;;;1.83;;
25249;SDS011;13201;51.148;13.738;2023-07-13T09:17:13;2.83;;;1.60;;
25249;SDS011;13201;51.148;13.738;2023-07-13T09:19:45;3.80;;;1.75;;
25249;SDS011;13201;51.148;13.738;2023-07-13T09:22:16;3.72;;;1.58;;
25249;SDS011;13201;51.148;13.738;2023-07-13T09:25:00;3.55;;;1.60;;
25249;SDS011;13201;51.148;13.738;2023-07-13T09:27:36;4.03;;;1.30;;
25249;SDS011;13201;51.148;13.738;2023-07-13T09:32:43;3.05;;;1.30;;
25249;SDS011;13201;51.148;13.738;2023-07-13T09:35:15;5.75;;;1.40;;
25249;SDS011;13201;51.148;13.738;2023-07-13T09:37:45;3.95;;;1.33;;
25249;SDS011;13201;51.148;13.738;2023-07-13T09:40:14;5.30;;;1.60;;
25249;SDS011;13201;51.148;13.738;2023-07-13T09:42:48;4.30;;;1.20;;
25249;SDS011;13201;51.148;13.738;2023-07-13T09:45:17;6.40;;;1.70;;
25249;SDS011;13201;51.148;13.738;2023-07-13T09:47:58;2.30;;;1.27;;
25249;SDS011;13201;51.148;13.738;2023-07-13T09:50:33;4.50;;;1.50;;
25249;SDS011;13201;51.148;13.738;2023-07-13T09:53:00;5.27;;;1.50;;
25249;SDS011;13201;51.148;13.738;2023-07-13T10:00:35;2.58;;;1.50;;
25249;SDS011;13201;51.148;13.738;2023-07-13T10:03:02;4.15;;;1.40;;
25249;SDS011;13201;51.148;13.738;2023-07-13T10:05:50;2.47;;;1.40;;
25249;SDS011;13201;51.148;13.738;2023-07-13T10:08:26;2.00;;;1.15;;
25249;SDS011;13201;51.148;13.738;2023-07-13T10:11:02;3.28;;;1.30;;
25249;SDS011;13201;51.148;13.738;2023-07-13T10:13:37;4.35;;;1.27;;
25249;SDS011;13201;51.148;13.738;2023-07-13T10:16:07;4.05;;;1.55;;
25249;SDS011;13201;51.148;13.738;2023-07-13T10:21:19;3.67;;;1.30;;
25249;SDS011;13201;51.148;13.738;2023-07-13T10:23:54;1.85;;;1.30;;
25249;SDS011;13201;51.148;13.738;2023-07-13T10:26:25;2.78;;;1.20;;
25249;SDS011;13201;51.148;13.738;2023-07-13T10:28:56;2.35;;;1.30;;
25249;SDS011;13201;51.148;13.738;2023-07-13T10:31:25;4.10;;;1.48;;
25249;SDS011;13201;51.148;13.738;2023-07-13T10:33:51;2.90;;;1.27;;
25249;SDS011;13201;51.148;13.738;2023-07-13T10:36:20;3.53;;;1.60;;
25249;SDS011;13201;51.148;13.738;2023-07-13T10:38:51;3.65;;;1.20;;
25249;SDS011;13201;51.148;13.738;2023-07-13T10:41:23;3.10;;;1.33;;
25249;SDS011;13201;51.148;13.738;2023-07-13T10:43:53;4.03;;;1.50;;
25249;SDS011;13201;51.148;13.738;2023-07-13T10:46:22;3.22;;;1.30;;
25249;SDS011;13201;51.148;13.738;2023-07-13T10:48:55;3.72;;;1.17;;
25249;SDS011;13201;51.148;13.738;2023-07-13T10:51:24;4.25;;;1.58;;
25249;SDS011;13201;51.148;13.738;2023-07-13T10:56:40;3.55;;;1.40;;
25249;SDS011;13201;51.148;13.738;2023-07-13T10:59:11;3.15;;;1.25;;
25249;SDS011;13201;51.148;13.738;2023-07-13T11:01:41;3.00;;;1.13;;
25249;SDS011;13201;51.148;13.738;2023-07-13T11:04:12;5.30;;;1.38;;
25249;SDS011;13201;51.148;13.738;2023-07-13T11:06:40;3.50;;;1.38;;
25249;SDS011;13201;51.148;13.738;2023-07-13T11:11:53;2.38;;;1.30;;
25249;SDS011;13201;51.148;13.738;2023-07-13T11:14:42;5.82;;;1.45;;
25249;SDS011;13201;51.148;13.738;2023-07-13T11:17:47;2.13;;;1.45;;
25249;SDS011;13201;51.148;13.738;2023-07-13T11:22:48;3.40;;;1.47;;
25249;SDS011;13201;51.148;13.738;2023-07-13T11:25:43;2.75;;;1.35;;
25249;SDS011;13201;51.148;13.738;2023-07-13T11:33:25;3.40;;;1.40;;
25249;SDS011;13201;51.148;13.738;2023-07-13T11:36:14;3.63;;;1.30;;
25249;SDS011;13201;51.148;13.738;2023-07-13T11:43:55;2.58;;;1.30;;
25249;SDS011;13201;51.148;13.738;2023-07-13T11:46:30;4.80;;;1.50;;
25249;SDS011;13201;51.148;13.738;2023-07-13T11:48:55;3.70;;;1.50;;
25249;SDS011;13201;51.148;13.738;2023-07-13T11:51:22;7.13;;;1.20;;
25249;SDS011;13201;51.148;13.738;2023-07-13T11:53:54;4.13;;;1.42;;
25249;SDS011;13201;51.148;13.738;2023-07-13T11:56:22;11.32;;;1.67;;
25249;SDS011;13201;51.148;13.738;2023-07-13T11:58:50;21.92;;;2.92;;
25249;SDS011;13201;51.148;13.738;2023-07-13T12:01:21;2.90;;;1.30;;
25249;SDS011;13201;51.148;13.738;2023-07-13T12:03:49;4.57;;;1.30;;
25249;SDS011;13201;51.148;13.738;2023-07-13T12:08:55;3.45;;;1.20;;
25249;SDS011;13201;51.148;13.738;2023-07-13T12:11:22;3.08;;;1.40;;
25249;SDS011;13201;51.148;13.738;2023-07-13T12:13:48;2.43;;;1.30;;
25249;SDS011;13201;51.148;13.738;2023-07-13T12:18:45;4.80;;;1.48;;
25249;SDS011;13201;51.148;13.738;2023-07-13T12:21:13;2.27;;;1.10;;
25249;SDS011;13201;51.148;13.738;2023-07-13T12:23:43;1.95;;;1.27;;
25249;SDS011;13201;51.148;13.738;2023-07-13T12:26:10;3.38;;;1.38;;
25249;SDS011;13201;51.148;13.738;2023-07-13T12:28:38;5.38;;;1.30;;
25249;SDS011;13201;51.148;13.738;2023-07-13T12:34:05;2.85;;;1.35;;
25249;SDS011;13201;51.148;13.738;2023-07-13T12:36:33;2.50;;;1.20;;
25249;SDS011;13201;51.148;13.738;2023-07-13T12:39:04;4.13;;;1.17;;
25249;SDS011;13201;51.148;13.738;2023-07-13T12:41:39;3.78;;;1.35;;
25249;SDS011;13201;51.148;13.738;2023-07-13T12:44:08;2.50;;;1.20;;
25249;SDS011;13201;51.148;13.738;2023-07-13T12:46:37;2.33;;;1.00;;
25249;SDS011;13201;51.148;13.738;2023-07-13T12:49:04;1.87;;;1.20;;
25249;SDS011;13201;51.148;13.738;2023-07-13T12:51:32;3.05;;;1.20;;
25249;SDS011;13201;51.148;13.738;2023-07-13T12:53:59;2.70;;;1.40;;
25249;SDS011;13201;51.148;13.738;2023-07-13T12:56:36;3.42;;;1.20;;
25249;SDS011;13201;51.148;13.738;2023-07-13T12:59:02;3.57;;;1.27;;
25249;SDS011;13201;51.148;13.738;2023-07-13T13:01:32;5.43;;;1.25;;
25249;SDS011;13201;51.148;13.738;2023-07-13T13:04:01;2.15;;;1.20;;
25249;SDS011;13201;51.148;13.738;2023-07-13T13:06:33;6.50;;;1.45;;
25249;SDS011;13201;51.148;13.738;2023-07-13T13:09:01;2.30;;;1.00;;
25249;SDS011;13201;51.148;13.738;2023-07-13T13:11:29;2.63;;;1.20;;
25249;SDS011;13201;51.148;13.738;2023-07-13T13:13:56;5.60;;;1.30;;
25249;SDS011;13201;51.148;13.738;2023-07-13T13:21:44;5.68;;;1.30;;
25249;SDS011;13201;51.148;13.738;2023-07-13T13:26:41;4.30;;;1.30;;
25249;SDS011;13201;51.148;13.738;2023-07-13T13:29:15;3.67;;;1.20;;
25249;SDS011;13201;51.148;13.738;2023-07-13T13:31:43;3.55;;;1.30;;
25249;SDS011;13201;51.148;13.738;2023-07-13T13:34:10;5.47;;;1.35;;
25249;SDS011;13201;51.148;13.738;2023-07-13T13:36:38;6.38;;;1.60;;
25249;SDS011;13201;51.148;13.738;2023-07-13T13:39:08;4.43;;;1.40;;
25249;SDS011;13201;51.148;13.738;2023-07-13T13:41:45;4.07;;;1.60;;
25249;SDS011;13201;51.148;13.738;2023-07-13T13:44:10;2.87;;;1.20;;
25249;SDS011;13201;51.148;13.738;2023-07-13T13:46:42;7.82;;;1.30;;
25249;SDS011;13201;51.148;13.738;2023-07-13T13:49:14;4.65;;;1.00;;
25249;SDS011;13201;51.148;13.738;2023-07-13T13:51:41;5.72;;;1.50;;
25249;SDS011;13201;51.148;13.738;2023-07-13T13:54:10;4.93;;;1.30;;
25249;SDS011;13201;51.148;13.738;2023-07-13T13:56:37;5.60;;;1.40;;
25249;SDS011;13201;51.148;13.738;2023-07-13T13:59:03;2.20;;;1.20;;
25249;SDS011;13201;51.148;13.738;2023-07-13T14:01:29;4.20;;;1.20;;
25249;SDS011;13201;51.148;13.738;2023-07-13T14:03:56;3.88;;;1.33;;
25249;SDS011;13201;51.148;13.738;2023-07-13T14:06:22;2.63;;;1.30;;
25249;SDS011;13201;51.148;13.738;2023-07-13T14:08:48;2.57;;;1.10;;
25249;SDS011;13201;51.148;13.738;2023-07-13T14:11:14;3.27;;;1.37;;
25249;SDS011;13201;51.148;13.738;2023-07-13T14:13:43;5.22;;;1.75;;
25249;SDS011;13201;51.148;13.738;2023-07-13T14:16:21;3.28;;;1.38;;
25249;SDS011;13201;51.148;13.738;2023-07-13T14:18:48;2.38;;;1.10;;
25249;SDS011;13201;51.148;13.738;2023-07-13T14:21:15;3.10;;;1.35;;
25249;SDS011;13201;51.148;13.738;2023-07-13T14:23:43;3.45;;;1.30;;
25249;SDS011;13201;51.148;13.738;2023-07-13T14:26:14;3.03;;;1.15;;
25249;SDS011;13201;51.148;13.738;2023-07-13T14:28:43;3.67;;;1.10;;
25249;SDS011;13201;51.148;13.738;2023-07-13T14:31:11;3.55;;;1.48;;
25249;SDS011;13201;51.148;13.738;2023-07-13T14:33:38;3.38;;;1.17;;
25249;SDS011;13201;51.148;13.738;2023-07-13T14:39:12;1.90;;;1.20;;
25249;SDS011;13201;51.148;13.738;2023-07-13T14:41:46;4.30;;;1.27;;
25249;SDS011;13201;51.148;13.738;2023-07-13T14:44:16;3.30;;;1.30;;
25249;SDS011;13201;51.148;13.738;2023-07-13T14:46:46;3.30;;;1.30;;
25249;SDS011;13201;51.148;13.738;2023-07-13T14:49:24;6.70;;;1.30;;
25249;SDS011;13201;51.148;13.738;2023-07-13T14:52:21;5.05;;;1.10;;
25249;SDS011;13201;51.148;13.738;2023-07-13T14:54:48;3.47;;;1.50;;
25249;SDS011;13201;51.148;13.738;2023-07-13T14:57:18;2.05;;;1.00;;
25249;SDS011;13201;51.148;13.738;2023-07-13T14:59:45;2.58;;;1.15;;
25249;SDS011;13201;51.148;13.738;2023-07-13T15:02:19;1.13;;;0.70;;
25249;SDS011;13201;51.148;13.738;2023-07-13T15:05:01;2.17;;;1.17;;
25249;SDS011;13201;51.148;13.738;2023-07-13T15:07:30;1.23;;;0.93;;
25249;SDS011;13201;51.148;13.738;2023-07-13T15:09:56;2.83;;;1.03;;
25249;SDS011;13201;51.148;13.738;2023-07-13T15:12:21;4.20;;;1.10;;
25249;SDS011;13201;51.148;13.738;2023-07-13T15:14:47;2.80;;;0.90;;
25249;SDS011;13201;51.148;13.738;2023-07-13T15:17:31;3.10;;;0.93;;
25249;SDS011;13201;51.148;13.738;2023-07-13T15:19:59;3.55;;;1.10;;
25249;SDS011;13201;51.148;13.738;2023-07-13T15:22:24;2.67;;;1.00;;
25249;SDS011;13201;51.148;13.738;2023-07-13T15:24:50;10.13;;;1.10;;
25249;SDS011;13201;51.148;13.738;2023-07-13T15:27:16;1.88;;;1.40;;
25249;SDS011;13201;51.148;13.738;2023-07-13T15:29:42;1.90;;;1.00;;
25249;SDS011;13201;51.148;13.738;2023-07-13T15:32:13;2.03;;;0.90;;
25249;SDS011;13201;51.148;13.738;2023-07-13T15:34:39;6.97;;;0.80;;
25249;SDS011;13201;51.148;13.738;2023-07-13T15:37:13;6.53;;;1.30;;
25249;SDS011;13201;51.148;13.738;2023-07-13T15:39:40;0.80;;;0.60;;
25249;SDS011;13201;51.148;13.738;2023-07-13T15:42:08;4.20;;;1.07;;
25249;SDS011;13201;51.148;13.738;2023-07-13T15:44:44;1.83;;;0.70;;
25249;SDS011;13201;51.148;13.738;2023-07-13T15:47:14;1.52;;;0.60;;
25249;SDS011;13201;51.148;13.738;2023-07-13T15:49:40;1.67;;;0.75;;
25249;SDS011;13201;51.148;13.738;2023-07-13T15:52:20;3.35;;;0.90;;
25249;SDS011;13201;51.148;13.738;2023-07-13T15:54:49;1.15;;;0.75;;
25249;SDS011;13201;51.148;13.738;2023-07-13T16:02:17;1.65;;;0.82;;
25249;SDS011;13201;51.148;13.738;2023-07-13T16:04:45;7.47;;;1.50;;
25249;SDS011;13201;51.148;13.738;2023-07-13T16:07:12;1.10;;;0.85;;
25249;SDS011;13201;51.148;13.738;2023-07-13T16:09:42;3.08;;;1.00;;
25249;SDS011;13201;51.148;13.738;2023-07-13T16:12:10;2.35;;;0.77;;
25249;SDS011;13201;51.148;13.738;2023-07-13T16:14:37;1.65;;;0.60;;
25249;SDS011;13201;51.148;13.738;2023-07-13T16:17:04;3.00;;;0.60;;
25249;SDS011;13201;51.148;13.738;2023-07-13T16:19:31;3.90;;;0.50;;
25249;SDS011;13201;51.148;13.738;2023-07-13T16:21:58;0.95;;;0.60;;
25249;SDS011;13201;51.148;13.738;2023-07-13T16:24:25;1.63;;;0.90;;
25249;SDS011;13201;51.148;13.738;2023-07-13T16:26:52;2.65;;;0.90;;
25249;SDS011;13201;51.148;13.738;2023-07-13T16:34:27;3.10;;;1.23;;
25249;SDS011;13201;51.148;13.738;2023-07-13T16:36:53;1.98;;;1.05;;